Argent Gerbera — V7UC4 — position and weather

sailwx.info

Track history (hours):
 
Tides and Currents Weather Stations Pressure Air Temp Water Temp Dewpoint Dewpoint Depression Visibility Wind Speed Wind Dir Waves Ship Positions

Argent Gerbera

Last reported at 2016-Jan-23 05:29 UTC. Time now 2016-Feb-07 23:44 UTC.
Position N 38°29' E 121°16'.
Warning: this ship's position is 15 days out of date.

Length 175 m; draft 7.4 m.

Type: Ship (hazmat cat B). MMSI: 538003929.

Date/timePositionNaut miles runAvg speedWind from/ knotsBaromVisibWave heightAir tempDewpointWater temp
2016-Jan-23 05:29N 38°29' E 121°16'1414.7
2016-Jan-23 04:33N 38°24' E 121°32'43911.0
2016-Jan-21 12:31N 31°05' E 122°01'9 9.4
2016-Jan-21 11:33N 31°10' E 121°52'1413.7
2016-Jan-21 10:33N 31°20' E 121°41'1111.5
2016-Jan-21 09:33N 31°26' E 121°30'1111.0
2016-Jan-21 08:33N 31°33' E 121°20'1414.4
2016-Jan-21 07:33N 31°43' E 121°08'1312.7
2016-Jan-21 06:32N 31°49' E 120°55'1313.3
2016-Jan-21 05:33N 32°01' E 120°47'1211.8
2016-Jan-21 04:33N 32°01' E 120°33'5 0.5
2016-Jan-20 18:12N 31°60' E 120°27'1 1.7
2016-Jan-20 17:32N 31°59' E 120°27'7 7.0
2016-Jan-20 16:32N 31°57' E 120°19'9 9.3
2016-Jan-20 15:32N 31°56' E 120°08'9 0.4
2016-Jan-19 17:23N 31°58' E 120°19'7 8.3
2016-Jan-19 16:32N 31°59' E 120°27'9 8.2
2016-Jan-19 15:28N 31°60' E 120°37'1111.7
2016-Jan-19 14:33N 31°60' E 120°50'1413.7
2016-Jan-19 13:33N 31°47' E 120°57'1313.1
2016-Jan-19 12:33N 31°41' E 121°10'1312.7
2016-Jan-19 11:33N 31°32' E 121°21'1010.4
2016-Jan-19 10:33N 31°26' E 121°30'1111.3
2016-Jan-19 09:33N 31°20' E 121°42'  
2016-Jan-16 10:15N 24°10' E 118°21'912.3
2016-Jan-16 09:31N 24°14' E 118°12'1212.7
2016-Jan-16 08:32N 24°25' E 118°05'5 0.7
2016-Jan-16 01:12N 24°27' E 117°60'0 0.0
2016-Jan-15 23:24N 24°27' E 117°60'0 0.0
2016-Jan-15 19:18N 24°27' E 117°60'0 0.0
2016-Jan-15 08:30N 24°27' E 117°60'1 0.6
2016-Jan-15 07:33N 24°27' E 118°00'9 9.1
2016-Jan-15 06:32N 24°22' E 118°09'6 6.2
2016-Jan-15 05:33N 24°16' E 118°11'1211.5
2016-Jan-15 04:32N 24°08' E 118°21'31512.9
2016-Jan-14 04:14N 21°45' E 113°17'812.0
2016-Jan-14 03:33N 21°52' E 113°13'2 1.9
2016-Jan-14 02:31N 21°53' E 113°14'  
Track history (hours):
 
Tides and Currents Weather Stations Pressure Air Temp Water Temp Dewpoint Dewpoint Depression Visibility Wind Speed Wind Dir Waves Ship Positions

Argent Gerbera

Last reported at 2016-Jan-23 05:29 UTC. Time now 2016-Feb-07 23:44 UTC.
Position N 38°29' E 121°16'.
Warning: this ship's position is 15 days out of date.

Length 175 m; draft 7.4 m.

Type: Ship (hazmat cat B). MMSI: 538003929.

Date/timePositionNaut miles runAvg speedWind from/ knotsBaromVisibWave heightAir tempDewpointWater temp
2016-Jan-23 05:29N 38°29' E 121°16'1414.7
2016-Jan-23 04:33N 38°24' E 121°32'43911.0
2016-Jan-21 12:31N 31°05' E 122°01'9 9.4
2016-Jan-21 11:33N 31°10' E 121°52'1413.7
2016-Jan-21 10:33N 31°20' E 121°41'1111.5
2016-Jan-21 09:33N 31°26' E 121°30'1111.0
2016-Jan-21 08:33N 31°33' E 121°20'1414.4
2016-Jan-21 07:33N 31°43' E 121°08'1312.7
2016-Jan-21 06:32N 31°49' E 120°55'1313.3
2016-Jan-21 05:33N 32°01' E 120°47'1211.8
2016-Jan-21 04:33N 32°01' E 120°33'5 0.5
2016-Jan-20 18:12N 31°60' E 120°27'1 1.7
2016-Jan-20 17:32N 31°59' E 120°27'7 7.0
2016-Jan-20 16:32N 31°57' E 120°19'9 9.3
2016-Jan-20 15:32N 31°56' E 120°08'9 0.4
2016-Jan-19 17:23N 31°58' E 120°19'7 8.3
2016-Jan-19 16:32N 31°59' E 120°27'9 8.2
2016-Jan-19 15:28N 31°60' E 120°37'1111.7
2016-Jan-19 14:33N 31°60' E 120°50'1413.7
2016-Jan-19 13:33N 31°47' E 120°57'1313.1
2016-Jan-19 12:33N 31°41' E 121°10'1312.7
2016-Jan-19 11:33N 31°32' E 121°21'1010.4
2016-Jan-19 10:33N 31°26' E 121°30'1111.3
2016-Jan-19 09:33N 31°20' E 121°42'  
2016-Jan-16 10:15N 24°10' E 118°21'912.3
2016-Jan-16 09:31N 24°14' E 118°12'1212.7
2016-Jan-16 08:32N 24°25' E 118°05'5 0.7
2016-Jan-16 01:12N 24°27' E 117°60'0 0.0
2016-Jan-15 23:24N 24°27' E 117°60'0 0.0
2016-Jan-15 19:18N 24°27' E 117°60'0 0.0
2016-Jan-15 08:30N 24°27' E 117°60'1 0.6
2016-Jan-15 07:33N 24°27' E 118°00'9 9.1
2016-Jan-15 06:32N 24°22' E 118°09'6 6.2
2016-Jan-15 05:33N 24°16' E 118°11'1211.5
2016-Jan-15 04:32N 24°08' E 118°21'31512.9
2016-Jan-14 04:14N 21°45' E 113°17'812.0
2016-Jan-14 03:33N 21°52' E 113°13'2 1.9
2016-Jan-14 02:31N 21°53' E 113°14'  

Dump ship's entire track history